createdAt,value
2022-11-07T00:01:48.026Z,14.25
2022-11-07T00:04:15.708Z,14.39
2022-11-07T00:06:42.930Z,14.39
2022-11-07T00:09:10.212Z,14.37
2022-11-07T00:11:37.676Z,14.39
2022-11-07T00:14:04.928Z,14.37
2022-11-07T00:16:32.305Z,14.30
2022-11-07T00:18:59.788Z,14.40
2022-11-07T00:21:27.024Z,14.44
2022-11-07T00:23:54.219Z,14.44
2022-11-07T00:26:21.777Z,14.47
2022-11-07T00:28:49.106Z,14.43
2022-11-07T00:31:16.369Z,14.33
2022-11-07T00:33:44.059Z,14.55
2022-11-07T00:36:17.103Z,14.54
2022-11-07T00:38:44.613Z,14.55
2022-11-07T00:41:11.808Z,14.54
2022-11-07T00:43:38.992Z,14.47
2022-11-07T00:46:06.924Z,14.58
2022-11-07T00:48:34.099Z,14.60
2022-11-07T00:51:17.788Z,14.59
2022-11-07T00:53:45.378Z,14.60
2022-11-07T00:56:13.442Z,14.59
2022-11-07T00:58:42.179Z,14.58
2022-11-07T01:01:14.834Z,14.62
2022-11-07T01:04:00.744Z,14.64
2022-11-07T01:06:29.537Z,14.60
2022-11-07T01:08:56.755Z,14.67
2022-11-07T01:11:24.681Z,14.59
2022-11-07T01:13:59.143Z,14.68
2022-11-07T01:16:26.603Z,14.73
2022-11-07T01:18:54.224Z,14.66
2022-11-07T01:21:21.518Z,14.60
2022-11-07T01:23:48.823Z,14.63
2022-11-07T01:26:16.587Z,14.73
2022-11-07T01:28:43.781Z,14.79
2022-11-07T01:31:12.190Z,14.74
2022-11-07T01:33:39.802Z,14.75
2022-11-07T01:36:11.311Z,14.71
2022-11-07T01:38:39.496Z,14.68
2022-11-07T01:41:26.867Z,14.79
2022-11-07T01:43:55.840Z,14.74
2022-11-07T01:46:27.740Z,14.83
2022-11-07T01:48:56.739Z,14.81
2022-11-07T01:51:24.319Z,14.73
2022-11-07T01:53:51.797Z,14.78
2022-11-07T01:56:19.041Z,14.93
2022-11-07T01:58:46.496Z,14.92
2022-11-07T02:01:13.873Z,14.91
2022-11-07T02:03:41.352Z,14.74
2022-11-07T02:06:09.722Z,14.85
2022-11-07T02:08:37.337Z,14.93
2022-11-07T02:11:04.898Z,14.94
2022-11-07T02:13:32.151Z,14.74
2022-11-07T02:15:59.668Z,14.90
2022-11-07T02:18:27.341Z,14.91
2022-11-07T02:20:55.469Z,14.98
2022-11-07T02:23:35.823Z,15.03
2022-11-07T02:26:03.341Z,14.97
2022-11-07T02:28:30.487Z,14.87
2022-11-07T02:30:57.670Z,14.84
2022-11-07T02:33:25.165Z,14.86
2022-11-07T02:35:52.582Z,14.76
2022-11-07T02:38:24.871Z,14.93
2022-11-07T02:40:55.875Z,14.93
2022-11-07T02:43:23.928Z,14.96
2022-11-07T02:45:51.426Z,14.97
2022-11-07T02:48:18.634Z,14.96
2022-11-07T02:50:45.827Z,14.95
2022-11-07T02:53:13.611Z,15.05
2022-11-07T02:55:41.121Z,15.02
2022-11-07T02:58:08.289Z,14.96
2022-11-07T03:00:35.743Z,15.02
2022-11-07T03:03:02.929Z,14.96
2022-11-07T03:05:30.180Z,15.01
2022-11-07T03:07:57.688Z,15.03
2022-11-07T03:10:24.854Z,15.06
2022-11-07T03:12:52.028Z,15.06
2022-11-07T03:15:19.503Z,15.03
2022-11-07T03:17:46.671Z,15.10
2022-11-07T03:20:13.937Z,15.07
2022-11-07T03:22:41.474Z,15.08
2022-11-07T03:25:08.747Z,15.04
2022-11-07T03:27:35.966Z,15.02
2022-11-07T03:30:03.762Z,15.04
2022-11-07T03:32:31.071Z,15.08
2022-11-07T03:34:58.304Z,15.11
2022-11-07T03:37:25.796Z,15.12
2022-11-07T03:39:53.011Z,15.14
2022-11-07T03:42:20.172Z,15.04
2022-11-07T03:44:47.619Z,15.17
2022-11-07T03:47:14.834Z,15.20
2022-11-07T03:49:42.025Z,15.20
2022-11-07T03:52:09.532Z,15.21
2022-11-07T03:54:36.702Z,15.24
2022-11-07T03:57:03.943Z,15.22
2022-11-07T03:59:31.390Z,15.28
2022-11-07T04:01:58.689Z,15.25
2022-11-07T04:04:26.173Z,15.32
2022-11-07T04:06:53.372Z,15.31
2022-11-07T04:09:20.567Z,15.36
2022-11-07T04:12:06.870Z,15.33
2022-11-07T04:14:52.510Z,15.31
2022-11-07T04:17:20.071Z,15.35
2022-11-07T04:19:48.157Z,15.37
2022-11-07T04:22:15.372Z,15.40
2022-11-07T04:24:45.942Z,15.38
2022-11-07T04:27:32.513Z,15.20
2022-11-07T04:30:18.899Z,15.26
2022-11-07T04:32:53.356Z,15.29
2022-11-07T04:35:21.437Z,15.38
2022-11-07T04:37:48.640Z,15.41
2022-11-07T04:40:15.869Z,15.41
2022-11-07T04:42:43.732Z,15.45
2022-11-07T04:45:11.382Z,15.47
2022-11-07T04:47:40.597Z,15.48
2022-11-07T04:50:10.121Z,15.32
2022-11-07T04:52:37.383Z,15.36
2022-11-07T04:55:05.031Z,15.41
2022-11-07T04:57:32.598Z,15.37
2022-11-07T04:59:59.799Z,15.42
2022-11-07T05:02:27.121Z,15.36
2022-11-07T05:04:54.703Z,15.40
2022-11-07T05:07:21.899Z,15.41
2022-11-07T05:09:49.107Z,15.40
2022-11-07T05:12:17.115Z,15.40
2022-11-07T05:14:44.402Z,15.30
2022-11-07T05:17:15.384Z,15.24
2022-11-07T05:19:45.925Z,15.25
2022-11-07T05:22:31.692Z,15.31
2022-11-07T05:24:59.159Z,15.33
2022-11-07T05:27:26.385Z,15.31
2022-11-07T05:29:53.607Z,15.32
2022-11-07T05:32:21.068Z,15.28
2022-11-07T05:34:49.069Z,15.23
2022-11-07T05:37:16.269Z,15.33
2022-11-07T05:39:43.679Z,15.28
2022-11-07T05:42:10.925Z,15.33
2022-11-07T05:44:38.110Z,15.21
2022-11-07T05:47:05.608Z,15.25
2022-11-07T05:49:32.815Z,15.20
2022-11-07T05:52:00.040Z,15.16
2022-11-07T05:54:28.182Z,15.01
2022-11-07T05:56:55.892Z,15.08
2022-11-07T05:59:23.132Z,15.09
2022-11-07T06:01:51.497Z,15.00
2022-11-07T06:04:19.166Z,15.06
2022-11-07T06:06:46.368Z,14.83
2022-11-07T06:09:13.560Z,14.99
2022-11-07T06:11:41.082Z,14.94
2022-11-07T06:14:08.349Z,14.91
2022-11-07T06:16:35.784Z,15.00
2022-11-07T06:19:03.328Z,15.02
2022-11-07T06:21:30.488Z,15.11
2022-11-07T06:23:57.917Z,15.11
2022-11-07T06:26:25.533Z,15.09
2022-11-07T06:28:52.896Z,15.10
2022-11-07T06:31:20.361Z,15.18
2022-11-07T06:33:51.359Z,15.22
2022-11-07T06:36:18.562Z,15.28
2022-11-07T06:38:45.736Z,15.24
2022-11-07T06:41:14.112Z,15.20
2022-11-07T06:43:41.441Z,15.26
2022-11-07T06:46:10.570Z,15.28
2022-11-07T06:48:38.263Z,15.29
2022-11-07T06:51:05.872Z,15.35
2022-11-07T06:53:33.159Z,15.35
2022-11-07T06:56:01.220Z,15.35
2022-11-07T06:58:28.420Z,15.37
2022-11-07T07:00:59.960Z,15.42
2022-11-07T07:03:27.564Z,15.53
2022-11-07T07:05:54.869Z,15.48
2022-11-07T07:08:22.053Z,15.50
2022-11-07T07:10:49.637Z,15.47
2022-11-07T07:13:17.179Z,15.48
2022-11-07T07:15:51.910Z,15.44
2022-11-07T07:18:19.832Z,15.53
2022-11-07T07:20:47.664Z,15.58
2022-11-07T07:23:15.090Z,15.60
2022-11-07T07:25:42.643Z,15.58
2022-11-07T07:28:09.802Z,15.49
2022-11-07T07:30:37.040Z,15.56
2022-11-07T07:33:04.519Z,15.45
2022-11-07T07:35:31.755Z,15.41
2022-11-07T07:37:58.985Z,15.55
2022-11-07T07:40:26.480Z,15.38
2022-11-07T07:42:53.791Z,15.36
2022-11-07T07:45:21.001Z,15.45
2022-11-07T07:47:48.698Z,15.53
2022-11-07T07:50:15.962Z,15.35
2022-11-07T07:52:43.836Z,15.43
2022-11-07T07:55:11.643Z,15.42
2022-11-07T07:57:42.646Z,15.43
2022-11-07T08:00:10.847Z,15.22
2022-11-07T08:02:44.091Z,15.24
2022-11-07T08:05:12.134Z,15.20
2022-11-07T08:07:49.119Z,15.22
2022-11-07T08:10:40.120Z,15.33
2022-11-07T08:13:04.228Z,15.40
2022-11-07T08:15:31.743Z,15.53
2022-11-07T08:18:02.396Z,15.42
2022-11-07T08:20:29.848Z,15.59
2022-11-07T08:23:01.016Z,15.68
2022-11-07T08:25:28.249Z,15.54
2022-11-07T08:27:55.443Z,15.48
2022-11-07T08:30:22.901Z,15.46
2022-11-07T08:32:50.116Z,15.51
2022-11-07T08:35:17.399Z,15.55
2022-11-07T08:37:44.947Z,15.64
2022-11-07T08:40:12.362Z,15.76
2022-11-07T08:42:39.538Z,15.56
2022-11-07T08:45:07.220Z,15.40
2022-11-07T08:47:34.459Z,15.53
2022-11-07T08:50:01.718Z,15.86
2022-11-07T08:52:29.161Z,15.49
2022-11-07T08:54:56.481Z,15.77
2022-11-07T08:57:23.635Z,15.79
2022-11-07T08:59:51.104Z,16.00
2022-11-07T09:05:05.877Z,16.12
2022-11-07T09:07:33.072Z,16.22
2022-11-07T09:10:00.270Z,16.36
2022-11-07T09:12:27.839Z,16.37
2022-11-07T09:14:55.004Z,16.36
2022-11-07T09:17:22.207Z,16.35
2022-11-07T09:19:49.717Z,16.44
2022-11-07T09:22:16.956Z,16.52
2022-11-07T09:24:44.554Z,16.48
2022-11-07T09:27:12.008Z,16.33
2022-11-07T09:29:39.326Z,16.40
2022-11-07T09:32:23.688Z,16.37
2022-11-07T09:34:59.327Z,15.96
2022-11-07T09:37:29.369Z,16.25
2022-11-07T09:39:56.987Z,16.09
2022-11-07T09:42:42.666Z,16.29
2022-11-07T09:45:13.418Z,16.42
2022-11-07T09:47:45.064Z,16.26
2022-11-07T09:50:18.037Z,16.28
2022-11-07T09:52:51.304Z,16.29
2022-11-07T09:55:26.068Z,16.31
2022-11-07T09:57:54.717Z,16.19
2022-11-07T10:00:23.007Z,15.41
2022-11-07T10:02:51.124Z,16.05
2022-11-07T10:05:38.611Z,16.25
2022-11-07T10:08:21.493Z,16.27
2022-11-07T10:10:48.623Z,16.30
2022-11-07T10:13:28.222Z,16.04
2022-11-07T10:16:03.834Z,16.21
2022-11-07T10:18:38.645Z,15.78
2022-11-07T10:21:36.580Z,16.18
2022-11-07T10:24:00.050Z,15.95
2022-11-07T10:26:27.354Z,16.09
2022-11-07T10:28:59.481Z,16.04
2022-11-07T10:31:34.545Z,16.27
2022-11-07T10:34:02.943Z,16.39
2022-11-07T10:36:31.284Z,16.37
2022-11-07T10:38:58.620Z,15.97
2022-11-07T10:41:26.896Z,16.35
2022-11-07T10:44:10.190Z,16.20
2022-11-07T10:46:41.241Z,16.10
2022-11-07T10:49:18.041Z,16.21
2022-11-07T10:51:45.309Z,16.26
2022-11-07T10:54:31.055Z,16.27
2022-11-07T10:56:58.236Z,16.05
2022-11-07T10:59:34.599Z,16.15
2022-11-07T11:02:03.245Z,16.28
2022-11-07T11:04:31.750Z,16.18
2022-11-07T11:07:03.290Z,16.33
2022-11-07T11:09:34.673Z,16.36
2022-11-07T11:12:13.319Z,16.28
2022-11-07T11:14:40.775Z,16.33
2022-11-07T11:17:17.360Z,16.31
2022-11-07T11:19:52.728Z,16.35
2022-11-07T11:22:21.111Z,16.25
2022-11-07T11:25:08.855Z,16.24
2022-11-07T11:27:36.094Z,16.41
2022-11-07T11:30:23.830Z,16.11
2022-11-07T11:32:56.951Z,16.45
2022-11-07T11:35:24.417Z,16.54
2022-11-07T11:37:53.024Z,16.21
2022-11-07T11:40:21.692Z,16.28
2022-11-07T11:42:50.765Z,16.26
2022-11-07T11:45:36.786Z,16.37
2022-11-07T11:48:07.079Z,16.20
2022-11-07T11:50:43.376Z,16.26
2022-11-07T11:53:18.868Z,16.19
2022-11-07T11:56:06.890Z,16.20
2022-11-07T11:58:46.503Z,16.22
2022-11-07T12:01:52.391Z,15.74
2022-11-07T12:04:32.165Z,16.06
2022-11-07T12:07:19.694Z,15.99
2022-11-07T12:09:48.660Z,16.02
2022-11-07T12:12:34.826Z,15.76
2022-11-07T12:15:31.610Z,15.94
2022-11-07T12:17:59.992Z,16.12
2022-11-07T12:20:27.396Z,16.22
2022-11-07T12:23:13.371Z,16.25
2022-11-07T12:25:41.160Z,16.22
2022-11-07T12:28:08.345Z,16.38
2022-11-07T12:30:38.554Z,16.15
2022-11-07T12:33:11.854Z,16.33
2022-11-07T12:35:45.369Z,15.53
2022-11-07T12:38:19.626Z,15.59
2022-11-07T12:40:46.802Z,16.04
2022-11-07T12:43:14.582Z,15.28
2022-11-07T12:45:42.046Z,15.69
2022-11-07T12:48:15.332Z,15.99
2022-11-07T12:51:02.982Z,16.29
2022-11-07T12:53:45.530Z,15.68
2022-11-07T12:56:13.967Z,16.18
2022-11-07T12:58:41.764Z,16.26
2022-11-07T13:01:09.044Z,16.20
2022-11-07T13:03:55.475Z,16.46
2022-11-07T13:06:22.743Z,16.74
2022-11-07T13:09:09.123Z,16.57
2022-11-07T13:11:39.422Z,16.89
2022-11-07T13:14:23.719Z,16.99
2022-11-07T13:16:53.119Z,17.07
2022-11-07T13:19:42.990Z,16.63
2022-11-07T13:22:13.254Z,16.69
2022-11-07T13:24:49.906Z,17.11
2022-11-07T13:27:24.069Z,17.38
2022-11-07T13:29:51.578Z,17.46
2022-11-07T13:32:18.872Z,17.46
2022-11-07T13:34:50.263Z,17.95
2022-11-07T13:37:19.480Z,17.64
2022-11-07T13:39:46.997Z,17.89
2022-11-07T13:42:17.628Z,18.05
2022-11-07T13:44:49.888Z,18.21
2022-11-07T13:47:17.476Z,18.44
2022-11-07T13:49:45.348Z,18.46
2022-11-07T13:52:18.780Z,18.62
2022-11-07T13:54:51.183Z,18.66
2022-11-07T13:57:21.484Z,18.65
2022-11-07T13:59:54.878Z,18.53
2022-11-07T14:02:23.058Z,18.36
2022-11-07T14:07:43.399Z,18.50
2022-11-07T14:10:30.063Z,18.24
2022-11-07T14:13:09.658Z,17.66
2022-11-07T14:15:37.773Z,17.99
2022-11-07T14:18:04.985Z,18.09
2022-11-07T14:20:32.195Z,18.28
2022-11-07T14:23:03.156Z,18.31
2022-11-07T14:25:33.897Z,18.40
2022-11-07T14:28:01.635Z,18.26
2022-11-07T14:30:30.126Z,17.70
2022-11-07T14:32:58.951Z,18.00
2022-11-07T14:35:28.874Z,17.99
2022-11-07T14:37:56.926Z,17.75
2022-11-07T14:40:24.297Z,17.80
2022-11-07T14:42:51.910Z,17.83
2022-11-07T14:45:46.771Z,17.78
2022-11-07T14:48:13.353Z,17.60
2022-11-07T14:50:40.766Z,17.70
2022-11-07T14:53:11.409Z,17.67
2022-11-07T14:56:05.169Z,17.68
2022-11-07T14:58:32.378Z,17.69
2022-11-07T15:01:10.938Z,17.68
2022-11-07T15:03:38.634Z,17.61
2022-11-07T15:06:06.131Z,17.57
2022-11-07T15:08:34.619Z,17.56
2022-11-07T15:11:20.226Z,17.55
2022-11-07T15:13:47.988Z,17.55
2022-11-07T15:16:15.463Z,17.47
2022-11-07T15:18:43.180Z,17.46
2022-11-07T15:21:12.021Z,17.42
2022-11-07T15:23:39.192Z,17.37
2022-11-07T15:26:06.709Z,17.26
2022-11-07T15:28:44.378Z,17.21
2022-11-07T15:31:18.641Z,17.11
2022-11-07T15:33:46.128Z,17.07
2022-11-07T15:36:13.894Z,16.91
2022-11-07T15:38:41.148Z,16.71
2022-11-07T15:41:08.670Z,16.39
2022-11-07T15:43:36.031Z,16.30
2022-11-07T15:46:03.597Z,16.33
2022-11-07T15:48:36.916Z,16.05
2022-11-07T15:51:07.999Z,15.98
2022-11-07T15:53:35.494Z,16.02
2022-11-07T15:56:03.525Z,15.98
2022-11-07T15:58:30.740Z,15.95
2022-11-07T16:00:58.712Z,15.87
2022-11-07T16:03:27.334Z,15.93
2022-11-07T16:05:55.150Z,15.89
2022-11-07T16:08:23.469Z,15.89
2022-11-07T16:10:52.208Z,15.88
2022-11-07T16:13:19.510Z,15.81
2022-11-07T16:15:47.819Z,15.80
2022-11-07T16:18:19.652Z,15.69
2022-11-07T16:20:47.341Z,15.69
2022-11-07T16:23:15.000Z,15.72
2022-11-07T16:25:42.869Z,15.70
2022-11-07T16:28:16.966Z,15.58
2022-11-07T16:30:44.742Z,15.55
2022-11-07T16:33:12.075Z,15.52
2022-11-07T16:35:39.354Z,15.48
2022-11-07T16:38:14.232Z,15.44
2022-11-07T16:40:41.695Z,15.47
2022-11-07T16:43:10.382Z,15.46
2022-11-07T16:45:38.152Z,15.43
2022-11-07T16:48:05.506Z,15.58
2022-11-07T16:50:33.112Z,15.61
2022-11-07T16:53:00.911Z,15.57
2022-11-07T16:55:28.205Z,15.27
2022-11-07T16:57:55.894Z,15.27
2022-11-07T17:00:23.607Z,15.35
2022-11-07T17:02:51.234Z,15.34
2022-11-07T17:05:18.936Z,15.34
2022-11-07T17:07:46.151Z,15.20
2022-11-07T17:10:14.464Z,14.67
2022-11-07T17:12:42.028Z,15.03
2022-11-07T17:15:09.707Z,15.02
2022-11-07T17:17:36.958Z,15.04
2022-11-07T17:20:05.028Z,15.17
2022-11-07T17:22:32.306Z,15.20
2022-11-07T17:24:59.653Z,15.23
2022-11-07T17:27:27.255Z,15.24
2022-11-07T17:29:54.771Z,15.27
2022-11-07T17:32:22.250Z,15.27
2022-11-07T17:35:04.712Z,15.30
2022-11-07T17:37:37.578Z,15.26
2022-11-07T17:40:06.589Z,15.23
2022-11-07T17:42:38.019Z,15.21
2022-11-07T17:45:07.271Z,15.17
2022-11-07T17:47:35.401Z,15.06
2022-11-07T17:50:03.226Z,14.84
2022-11-07T17:52:30.961Z,14.73
2022-11-07T17:54:58.316Z,14.76
2022-11-07T17:57:25.499Z,14.55
2022-11-07T17:59:53.160Z,14.45
2022-11-07T18:02:20.748Z,14.36
2022-11-07T18:04:49.053Z,14.13
2022-11-07T18:07:16.495Z,13.96
2022-11-07T18:09:43.998Z,13.92
2022-11-07T18:12:11.698Z,13.78
2022-11-07T18:14:39.252Z,13.82
2022-11-07T18:17:06.679Z,13.80
2022-11-07T18:19:34.470Z,13.86
2022-11-07T18:22:01.891Z,13.92
2022-11-07T18:24:30.294Z,13.86
2022-11-07T18:26:58.116Z,13.82
2022-11-07T18:29:25.521Z,13.95
2022-11-07T18:31:52.997Z,13.82
2022-11-07T18:34:20.812Z,13.20
2022-11-07T18:36:51.362Z,13.62
2022-11-07T18:39:22.224Z,13.57
2022-11-07T18:41:50.735Z,13.61
2022-11-07T18:44:18.305Z,13.72
2022-11-07T18:46:45.878Z,13.63
2022-11-07T18:49:14.127Z,13.39
2022-11-07T18:51:42.898Z,13.55
2022-11-07T18:54:10.433Z,13.66
2022-11-07T18:56:38.714Z,13.79
2022-11-07T18:59:06.141Z,13.87
2022-11-07T19:01:34.136Z,13.91
2022-11-07T19:04:03.678Z,13.80
2022-11-07T19:06:31.361Z,13.84
2022-11-07T19:08:58.825Z,13.77
2022-11-07T19:11:29.221Z,13.76
2022-11-07T19:13:57.540Z,13.68
2022-11-07T19:16:24.889Z,13.90
2022-11-07T19:18:52.584Z,13.88
2022-11-07T19:21:21.247Z,13.84
2022-11-07T19:23:48.894Z,13.93
2022-11-07T19:26:16.596Z,13.82
2022-11-07T19:28:43.985Z,13.40
2022-11-07T19:31:12.993Z,13.44
2022-11-07T19:33:41.475Z,12.99
2022-11-07T19:36:12.517Z,13.12
2022-11-07T19:38:40.041Z,13.08
2022-11-07T19:41:08.016Z,12.97
2022-11-07T19:43:36.161Z,12.91
2022-11-07T19:46:07.400Z,12.59
2022-11-07T19:48:35.071Z,12.56
2022-11-07T19:51:06.447Z,12.51
2022-11-07T19:53:33.929Z,12.67
2022-11-07T19:56:06.905Z,12.76
2022-11-07T19:58:35.022Z,12.85
2022-11-07T20:01:03.043Z,12.90
2022-11-07T20:03:30.841Z,12.42
2022-11-07T20:05:58.282Z,12.64
2022-11-07T20:08:27.381Z,12.80
2022-11-07T20:10:55.051Z,12.89
2022-11-07T20:13:22.505Z,12.83
2022-11-07T20:15:49.939Z,12.90
2022-11-07T20:18:17.574Z,12.77
2022-11-07T20:20:45.925Z,12.74
2022-11-07T20:23:13.345Z,12.66
2022-11-07T20:25:42.890Z,12.63
2022-11-07T20:28:10.345Z,12.28
2022-11-07T20:30:40.602Z,12.22
2022-11-07T20:33:09.773Z,12.28
2022-11-07T20:35:37.271Z,12.22
2022-11-07T20:38:06.243Z,12.09
2022-11-07T20:40:34.373Z,12.06
2022-11-07T20:43:02.846Z,12.14
2022-11-07T20:45:30.246Z,12.35
2022-11-07T20:47:57.943Z,12.29
2022-11-07T20:50:25.374Z,12.32
2022-11-07T20:52:57.308Z,12.20
2022-11-07T20:55:27.108Z,12.22
2022-11-07T20:57:55.740Z,12.29
2022-11-07T21:00:24.336Z,12.02
2022-11-07T21:02:51.842Z,11.89
2022-11-07T21:05:19.271Z,12.16
2022-11-07T21:07:48.339Z,12.24
2022-11-07T21:10:15.948Z,12.44
2022-11-07T21:12:43.730Z,12.41
2022-11-07T21:15:11.346Z,12.16
2022-11-07T21:17:38.879Z,12.07
2022-11-07T21:20:06.475Z,11.81
2022-11-07T21:22:35.476Z,11.85
2022-11-07T21:25:04.793Z,12.07
2022-11-07T21:27:34.174Z,12.20
2022-11-07T21:30:01.397Z,12.24
2022-11-07T21:32:28.952Z,12.27
2022-11-07T21:34:56.216Z,12.18
2022-11-07T21:37:23.429Z,12.42
2022-11-07T21:39:50.930Z,12.56
2022-11-07T21:42:18.340Z,12.45
2022-11-07T21:44:45.573Z,12.33
2022-11-07T21:47:13.129Z,12.50
2022-11-07T21:49:40.371Z,12.64
2022-11-07T21:52:07.647Z,12.56
2022-11-07T21:54:35.116Z,12.55
2022-11-07T21:57:02.467Z,12.70
2022-11-07T21:59:29.793Z,12.59
2022-11-07T22:01:57.548Z,12.56
2022-11-07T22:04:25.263Z,12.51
2022-11-07T22:06:52.484Z,12.50
2022-11-07T22:09:20.805Z,12.15
2022-11-07T22:11:48.903Z,12.32
2022-11-07T22:14:17.509Z,12.03
2022-11-07T22:16:45.016Z,11.94
2022-11-07T22:19:13.135Z,11.62
2022-11-07T22:21:40.768Z,11.41
2022-11-07T22:24:08.402Z,11.16
2022-11-07T22:26:35.914Z,11.11
2022-11-07T22:29:03.508Z,11.17
2022-11-07T22:31:30.969Z,10.79
2022-11-07T22:33:59.375Z,10.96
2022-11-07T22:36:26.693Z,11.05
2022-11-07T22:38:53.929Z,11.17
2022-11-07T22:41:22.218Z,11.24
2022-11-07T22:43:49.779Z,11.29
2022-11-07T22:46:18.192Z,11.37
2022-11-07T22:48:45.887Z,11.49
2022-11-07T22:51:14.186Z,11.50
2022-11-07T22:53:41.413Z,11.37
2022-11-07T22:56:08.831Z,11.29
2022-11-07T22:58:36.077Z,11.33
2022-11-07T23:01:03.683Z,11.45
2022-11-07T23:03:31.881Z,11.57
2022-11-07T23:06:02.524Z,11.56
2022-11-07T23:08:29.750Z,11.55
2022-11-07T23:11:14.409Z,11.53
2022-11-07T23:13:45.834Z,11.54
2022-11-07T23:16:25.153Z,11.45
2022-11-07T23:18:53.776Z,11.37
2022-11-07T23:21:21.318Z,11.36
2022-11-07T23:23:48.551Z,11.30
2022-11-07T23:26:16.934Z,11.28
2022-11-07T23:28:44.676Z,11.25
2022-11-07T23:31:12.013Z,11.04
2022-11-07T23:33:39.630Z,11.09
2022-11-07T23:36:07.948Z,10.86
2022-11-07T23:38:35.162Z,10.89
2022-11-07T23:41:03.133Z,10.88
2022-11-07T23:43:30.573Z,10.75
2022-11-07T23:46:16.753Z,10.77
2022-11-07T23:49:02.669Z,10.89
2022-11-07T23:51:29.901Z,10.94
2022-11-07T23:54:15.900Z,10.94
2022-11-07T23:56:43.264Z,11.05
2022-11-07T23:59:29.532Z,10.79
